createdAt,value
2023-04-02T00:01:23.954Z,17.10
2023-04-02T00:07:15.575Z,22.35
2023-04-02T00:13:00.099Z,12.85
2023-04-02T00:18:28.138Z,24.65
2023-04-02T00:23:59.362Z,24.42
2023-04-02T00:29:26.450Z,20.17
2023-04-02T00:34:56.118Z,20.63
2023-04-02T00:40:28.359Z,24.80
2023-04-02T00:46:04.505Z,22.80
2023-04-02T00:51:48.608Z,28.20
2023-04-02T00:57:22.086Z,30.70
2023-04-02T01:03:17.361Z,25.70
2023-04-02T01:09:16.214Z,22.15
2023-04-02T01:15:02.615Z,28.98
2023-04-02T01:21:11.983Z,29.25
2023-04-02T01:26:58.492Z,25.25
2023-04-02T01:32:29.604Z,16.92
2023-04-02T01:38:07.737Z,18.63
2023-04-02T01:43:45.572Z,16.75
2023-04-02T01:49:18.628Z,16.70
2023-04-02T01:54:48.032Z,21.33
2023-04-02T02:00:17.552Z,18.98
2023-04-02T02:05:48.543Z,21.23
2023-04-02T02:11:23.092Z,22.55
2023-04-02T02:16:53.673Z,24.10
2023-04-02T02:22:32.483Z,17.70
2023-04-02T02:28:02.630Z,16.17
2023-04-02T02:33:33.085Z,11.73
2023-04-02T02:39:22.825Z,18.08
2023-04-02T02:44:54.855Z,14.32
2023-04-02T02:50:32.539Z,17.65
2023-04-02T02:56:03.563Z,16.85
2023-04-02T03:01:38.929Z,15.90
2023-04-02T03:07:09.620Z,9.63
2023-04-02T03:12:56.127Z,18.13
2023-04-02T03:18:46.141Z,19.63
2023-04-02T03:24:58.313Z,18.60
2023-04-02T03:30:41.626Z,13.00
2023-04-02T03:36:31.235Z,11.48
2023-04-02T03:42:23.162Z,8.98
2023-04-02T03:48:00.070Z,10.52
2023-04-02T03:53:29.934Z,8.48
2023-04-02T03:59:41.684Z,12.27
2023-04-02T04:05:49.542Z,8.77
2023-04-02T04:11:22.936Z,10.63
2023-04-02T04:16:57.726Z,12.43
2023-04-02T04:22:35.969Z,14.50
2023-04-02T04:28:38.691Z,14.63
2023-04-02T04:34:16.400Z,15.23
2023-04-02T04:39:54.784Z,16.17
2023-04-02T04:45:56.339Z,17.83
2023-04-02T04:51:30.297Z,21.17
2023-04-02T04:57:02.957Z,19.10
2023-04-02T05:02:38.823Z,23.08
2023-04-02T05:08:15.313Z,25.08
2023-04-02T05:13:54.806Z,20.38
2023-04-02T05:19:29.899Z,28.38
2023-04-02T05:25:10.535Z,20.10
2023-04-02T05:30:47.072Z,16.95
2023-04-02T05:36:29.582Z,21.10
2023-04-02T05:42:04.522Z,19.67
2023-04-02T05:47:54.743Z,22.40
2023-04-02T05:53:44.898Z,30.25
2023-04-02T05:59:22.011Z,26.15
2023-04-02T06:04:58.809Z,23.48
2023-04-02T06:10:35.653Z,16.13
2023-04-02T06:16:04.150Z,19.58
2023-04-02T06:21:36.091Z,12.90
2023-04-02T06:27:07.267Z,11.18
2023-04-02T06:32:35.810Z,11.82
2023-04-02T06:38:06.396Z,11.73
2023-04-02T06:43:46.438Z,17.30
2023-04-02T06:49:52.781Z,14.40
2023-04-02T06:55:37.496Z,10.70
2023-04-02T07:01:06.098Z,11.38
2023-04-02T07:06:42.654Z,9.63
2023-04-02T07:12:28.414Z,7.70
2023-04-02T07:17:59.372Z,6.32
2023-04-02T07:23:27.477Z,4.47
2023-04-02T07:28:56.753Z,6.20
2023-04-02T07:34:24.069Z,6.07
2023-04-02T07:39:51.781Z,7.43
2023-04-02T07:45:19.671Z,3.90
2023-04-02T07:50:47.340Z,8.85
2023-04-02T07:56:16.448Z,6.22
2023-04-02T08:01:43.656Z,7.93
2023-04-02T08:07:11.389Z,6.13
2023-04-02T08:12:38.735Z,6.32
2023-04-02T08:18:07.046Z,9.35
2023-04-02T08:23:35.799Z,7.90
2023-04-02T08:29:04.662Z,6.88
2023-04-02T08:34:32.209Z,7.55
2023-04-02T08:39:59.553Z,6.75
2023-04-02T08:45:42.631Z,4.88
2023-04-02T08:51:23.470Z,4.30
2023-04-02T08:57:13.329Z,5.55
2023-04-02T09:02:47.600Z,4.80
2023-04-02T09:08:27.630Z,3.17
2023-04-02T09:13:58.809Z,4.60
2023-04-02T09:19:41.544Z,3.88
2023-04-02T09:25:17.573Z,5.85
2023-04-02T09:31:02.659Z,7.30
2023-04-02T09:36:38.577Z,9.95
2023-04-02T09:42:28.379Z,5.78
2023-04-02T09:47:58.457Z,10.40
2023-04-02T09:53:31.597Z,6.07
2023-04-02T09:59:15.942Z,8.98
2023-04-02T10:04:48.897Z,5.10
2023-04-02T10:10:19.300Z,7.57
2023-04-02T10:16:09.667Z,4.35
2023-04-02T10:21:39.081Z,9.80
2023-04-02T10:27:29.931Z,6.47
2023-04-02T10:33:33.405Z,4.18
2023-04-02T10:39:09.252Z,3.78
2023-04-02T10:45:00.161Z,5.07
2023-04-02T10:50:42.277Z,5.57
2023-04-02T10:56:13.263Z,7.38
2023-04-02T11:01:44.216Z,10.38
2023-04-02T11:07:21.579Z,31.23
2023-04-02T11:13:06.023Z,21.05
2023-04-02T11:18:39.010Z,6.95
2023-04-02T11:24:06.721Z,7.13
2023-04-02T11:29:37.502Z,5.60
2023-04-02T11:35:24.756Z,9.63
2023-04-02T11:40:56.582Z,9.57
2023-04-02T11:46:35.202Z,6.45
2023-04-02T11:52:12.062Z,6.05
2023-04-02T11:58:21.456Z,7.95
2023-04-02T12:04:27.840Z,5.68
2023-04-02T12:10:01.058Z,5.90
2023-04-02T12:15:57.984Z,7.13
2023-04-02T12:21:28.636Z,8.10
2023-04-02T12:27:15.801Z,7.55
2023-04-02T12:32:43.274Z,4.82
2023-04-02T12:38:29.305Z,4.97
2023-04-02T12:44:02.654Z,7.03
2023-04-02T12:55:20.514Z,9.93
2023-04-02T13:00:47.939Z,8.90
2023-04-02T13:06:24.460Z,6.93
2023-04-02T13:11:54.304Z,6.45
2023-04-02T13:17:40.910Z,7.20
2023-04-02T13:23:31.744Z,12.10
2023-04-02T13:29:03.610Z,9.15
2023-04-02T13:34:32.115Z,9.95
2023-04-02T13:39:59.724Z,7.90
2023-04-02T13:45:30.406Z,8.63
2023-04-02T13:50:57.695Z,8.43
2023-04-02T13:56:25.758Z,12.50
2023-04-02T14:02:00.202Z,5.78
2023-04-02T14:07:50.475Z,10.60
2023-04-02T14:13:29.107Z,10.32
2023-04-02T14:19:25.238Z,9.38
2023-04-02T14:25:00.675Z,9.77
2023-04-02T14:30:50.707Z,9.50
2023-04-02T14:36:34.593Z,14.88
2023-04-02T14:42:16.892Z,23.80
2023-04-02T14:47:54.844Z,21.35
2023-04-02T14:53:43.302Z,27.83
2023-04-02T14:59:44.413Z,8.48
2023-04-02T15:05:30.630Z,8.52
2023-04-02T15:11:09.838Z,9.82
2023-04-02T15:16:37.833Z,7.60
2023-04-02T15:22:14.622Z,7.10
2023-04-02T15:28:17.068Z,10.10
2023-04-02T15:33:49.961Z,11.10
2023-04-02T15:45:15.468Z,11.05
2023-04-02T15:51:20.632Z,11.88
2023-04-02T15:57:06.254Z,6.80
2023-04-02T16:03:15.275Z,10.25
2023-04-02T16:09:18.259Z,8.82
2023-04-02T16:14:48.336Z,8.43
2023-04-02T16:20:24.978Z,7.43
2023-04-02T16:25:58.676Z,10.13
2023-04-02T16:31:34.012Z,7.20
2023-04-02T16:37:06.573Z,11.07
2023-04-02T16:42:53.184Z,6.10
2023-04-02T16:48:41.008Z,9.38
2023-04-02T16:54:33.482Z,8.50
2023-04-02T17:00:19.055Z,7.43
2023-04-02T17:06:07.021Z,8.18
2023-04-02T17:11:44.815Z,9.10
2023-04-02T17:17:15.092Z,12.02
2023-04-02T17:22:44.464Z,8.20
2023-04-02T17:28:18.171Z,13.45
2023-04-02T17:33:48.510Z,10.85
2023-04-02T17:39:37.351Z,12.77
2023-04-02T17:45:12.051Z,10.93
2023-04-02T17:50:52.269Z,15.23
2023-04-02T17:56:35.689Z,14.73
2023-04-02T18:02:42.232Z,11.18
2023-04-02T18:08:16.435Z,17.10
2023-04-02T18:13:53.104Z,8.82
2023-04-02T18:19:34.624Z,9.95
2023-04-02T18:25:25.675Z,9.45
2023-04-02T18:31:40.505Z,5.07
2023-04-02T18:37:30.257Z,7.40
2023-04-02T18:43:16.933Z,8.50
2023-04-02T18:49:18.490Z,9.73
2023-04-02T18:55:09.573Z,8.85
2023-04-02T19:00:43.439Z,6.97
2023-04-02T19:06:24.601Z,4.03
2023-04-02T19:11:55.937Z,14.23
2023-04-02T19:17:27.534Z,5.93
2023-04-02T19:23:33.401Z,6.18
2023-04-02T19:29:23.423Z,7.75
2023-04-02T19:34:56.873Z,8.02
2023-04-02T19:40:43.082Z,7.35
2023-04-02T19:46:10.538Z,5.63
2023-04-02T19:51:38.752Z,4.68
2023-04-02T19:57:06.401Z,7.55
2023-04-02T20:02:34.724Z,6.65
2023-04-02T20:08:02.490Z,9.85
2023-04-02T20:13:32.292Z,7.20
2023-04-02T20:18:59.231Z,7.03
2023-04-02T20:24:26.403Z,5.43
2023-04-02T20:29:54.132Z,6.20
2023-04-02T20:35:22.141Z,4.82
2023-04-02T20:40:53.115Z,6.45
2023-04-02T20:46:21.038Z,6.05
2023-04-02T20:51:50.171Z,10.20
2023-04-02T20:57:21.981Z,4.72
2023-04-02T21:02:49.331Z,4.38
2023-04-02T21:08:16.278Z,7.47
2023-04-02T21:13:44.480Z,3.75
2023-04-02T21:19:11.503Z,2.80
2023-04-02T21:24:38.812Z,3.63
2023-04-02T21:30:07.392Z,2.60
2023-04-02T21:35:35.046Z,4.18
2023-04-02T21:41:17.468Z,7.57
2023-04-02T21:46:45.965Z,6.15
2023-04-02T21:52:13.418Z,5.45
2023-04-02T21:57:40.965Z,4.30
2023-04-02T22:03:10.080Z,5.47
2023-04-02T22:08:41.540Z,5.93
2023-04-02T22:14:09.028Z,5.40
2023-04-02T22:19:36.488Z,7.72
2023-04-02T22:25:04.061Z,9.10
2023-04-02T22:30:34.118Z,5.80
2023-04-02T22:36:02.867Z,3.78
2023-04-02T22:41:32.571Z,4.15
2023-04-02T22:46:59.548Z,3.45
2023-04-02T22:52:26.817Z,8.13
2023-04-02T22:57:53.787Z,2.90
2023-04-02T23:03:21.085Z,9.23
2023-04-02T23:08:49.169Z,8.18
2023-04-02T23:14:16.615Z,13.85
2023-04-02T23:19:44.332Z,5.63
2023-04-02T23:25:11.755Z,5.90
2023-04-02T23:30:38.837Z,5.03
2023-04-02T23:36:24.938Z,5.45
2023-04-02T23:41:51.800Z,7.70
2023-04-02T23:47:19.671Z,6.75
2023-04-02T23:52:47.742Z,9.27
2023-04-02T23:58:14.836Z,8.60
